sensor_id;sensor_type;location;lat;lon;timestamp;temperature;humidity
15556;DHT22;7879;48.660;9.116;2024-01-07T00:01:28;3.90;99.90
15556;DHT22;7879;48.660;9.116;2024-01-07T00:03:55;3.90;99.90
15556;DHT22;7879;48.660;9.116;2024-01-07T00:06:22;3.90;99.90
15556;DHT22;7879;48.660;9.116;2024-01-07T00:08:49;3.90;99.90
15556;DHT22;7879;48.660;9.116;2024-01-07T00:11:16;3.90;99.90
15556;DHT22;7879;48.660;9.116;2024-01-07T00:13:43;3.80;99.90
15556;DHT22;7879;48.660;9.116;2024-01-07T00:16:09;3.90;99.90
15556;DHT22;7879;48.660;9.116;2024-01-07T00:18:36;3.90;99.90
15556;DHT22;7879;48.660;9.116;2024-01-07T00:21:04;3.90;99.90
15556;DHT22;7879;48.660;9.116;2024-01-07T00:23:31;3.90;99.90
15556;DHT22;7879;48.660;9.116;2024-01-07T00:25:58;3.90;99.90
15556;DHT22;7879;48.660;9.116;2024-01-07T00:28:24;3.90;99.90
15556;DHT22;7879;48.660;9.116;2024-01-07T00:30:51;3.90;99.90
15556;DHT22;7879;48.660;9.116;2024-01-07T00:33:18;3.90;99.90
15556;DHT22;7879;48.660;9.116;2024-01-07T00:35:45;3.90;99.90
15556;DHT22;7879;48.660;9.116;2024-01-07T00:38:12;3.70;99.90
15556;DHT22;7879;48.660;9.116;2024-01-07T00:40:39;3.90;99.90
15556;DHT22;7879;48.660;9.116;2024-01-07T00:43:05;3.90;99.90
15556;DHT22;7879;48.660;9.116;2024-01-07T00:45:32;3.90;99.90
15556;DHT22;7879;48.660;9.116;2024-01-07T00:47:59;3.90;99.90
15556;DHT22;7879;48.660;9.116;2024-01-07T00:50:26;3.90;99.90
15556;DHT22;7879;48.660;9.116;2024-01-07T00:52:53;3.90;99.90
15556;DHT22;7879;48.660;9.116;2024-01-07T00:55:20;3.90;99.90
15556;DHT22;7879;48.660;9.116;2024-01-07T00:57:49;3.90;99.90
15556;DHT22;7879;48.660;9.116;2024-01-07T01:00:17;3.90;99.90
15556;DHT22;7879;48.660;9.116;2024-01-07T01:02:45;3.90;99.90
15556;DHT22;7879;48.660;9.116;2024-01-07T01:05:12;3.90;99.90
15556;DHT22;7879;48.660;9.116;2024-01-07T01:07:39;3.90;99.90
15556;DHT22;7879;48.660;9.116;2024-01-07T01:10:06;3.90;99.90
15556;DHT22;7879;48.660;9.116;2024-01-07T01:12:33;3.90;99.90
15556;DHT22;7879;48.660;9.116;2024-01-07T01:15:00;3.90;99.90
15556;DHT22;7879;48.660;9.116;2024-01-07T01:17:27;3.90;99.90
15556;DHT22;7879;48.660;9.116;2024-01-07T01:19:54;3.90;99.90
15556;DHT22;7879;48.660;9.116;2024-01-07T01:22:21;3.90;99.90
15556;DHT22;7879;48.660;9.116;2024-01-07T01:24:48;3.90;99.90
15556;DHT22;7879;48.660;9.116;2024-01-07T01:27:15;3.90;99.90
15556;DHT22;7879;48.660;9.116;2024-01-07T01:29:42;3.90;99.90
15556;DHT22;7879;48.660;9.116;2024-01-07T01:32:09;3.90;99.90
15556;DHT22;7879;48.660;9.116;2024-01-07T01:34:36;3.90;99.90
15556;DHT22;7879;48.660;9.116;2024-01-07T01:37:03;3.90;99.90
15556;DHT22;7879;48.660;9.116;2024-01-07T01:39:30;3.90;99.90
15556;DHT22;7879;48.660;9.116;2024-01-07T01:41:57;3.90;99.90
15556;DHT22;7879;48.660;9.116;2024-01-07T01:44:25;3.90;99.90
15556;DHT22;7879;48.660;9.116;2024-01-07T01:46:55;3.90;99.90
15556;DHT22;7879;48.660;9.116;2024-01-07T01:49:23;3.90;99.90
15556;DHT22;7879;48.660;9.116;2024-01-07T01:51:51;3.90;99.90
15556;DHT22;7879;48.660;9.116;2024-01-07T01:54:20;3.90;99.90
15556;DHT22;7879;48.660;9.116;2024-01-07T01:56:48;3.90;99.90
15556;DHT22;7879;48.660;9.116;2024-01-07T01:59:15;3.90;99.90
15556;DHT22;7879;48.660;9.116;2024-01-07T02:01:43;3.90;99.90
15556;DHT22;7879;48.660;9.116;2024-01-07T02:04:10;3.90;99.90
15556;DHT22;7879;48.660;9.116;2024-01-07T02:06:38;3.90;99.90
15556;DHT22;7879;48.660;9.116;2024-01-07T02:09:05;3.90;99.90
15556;DHT22;7879;48.660;9.116;2024-01-07T02:11:31;3.90;99.90
15556;DHT22;7879;48.660;9.116;2024-01-07T02:13:58;3.90;99.90
15556;DHT22;7879;48.660;9.116;2024-01-07T02:16:25;3.90;99.90
15556;DHT22;7879;48.660;9.116;2024-01-07T02:18:52;4.00;99.90
15556;DHT22;7879;48.660;9.116;2024-01-07T02:21:19;4.00;99.90
15556;DHT22;7879;48.660;9.116;2024-01-07T02:23:46;4.00;99.90
15556;DHT22;7879;48.660;9.116;2024-01-07T02:26:12;4.00;99.90
15556;DHT22;7879;48.660;9.116;2024-01-07T02:28:39;4.00;99.90
15556;DHT22;7879;48.660;9.116;2024-01-07T02:31:06;4.00;99.90
15556;DHT22;7879;48.660;9.116;2024-01-07T02:33:33;4.00;99.90
15556;DHT22;7879;48.660;9.116;2024-01-07T02:36:00;4.00;99.90
15556;DHT22;7879;48.660;9.116;2024-01-07T02:38:27;4.10;99.90
15556;DHT22;7879;48.660;9.116;2024-01-07T02:40:54;4.10;99.90
15556;DHT22;7879;48.660;9.116;2024-01-07T02:43:20;4.00;99.90
15556;DHT22;7879;48.660;9.116;2024-01-07T02:45:47;4.00;99.90
15556;DHT22;7879;48.660;9.116;2024-01-07T02:48:14;4.00;99.90
15556;DHT22;7879;48.660;9.116;2024-01-07T02:50:41;4.00;99.90
15556;DHT22;7879;48.660;9.116;2024-01-07T02:53:08;4.00;99.90
15556;DHT22;7879;48.660;9.116;2024-01-07T02:55:37;4.00;99.90
15556;DHT22;7879;48.660;9.116;2024-01-07T02:58:04;4.00;99.90
15556;DHT22;7879;48.660;9.116;2024-01-07T03:00:31;4.00;99.90
15556;DHT22;7879;48.660;9.116;2024-01-07T03:02:57;4.00;99.90
15556;DHT22;7879;48.660;9.116;2024-01-07T03:05:24;4.00;99.90
15556;DHT22;7879;48.660;9.116;2024-01-07T03:07:51;4.00;99.90
15556;DHT22;7879;48.660;9.116;2024-01-07T03:10:18;4.00;99.90
15556;DHT22;7879;48.660;9.116;2024-01-07T03:12:45;4.00;99.90
15556;DHT22;7879;48.660;9.116;2024-01-07T03:15:12;4.10;99.90
15556;DHT22;7879;48.660;9.116;2024-01-07T03:17:39;4.10;99.90
15556;DHT22;7879;48.660;9.116;2024-01-07T03:20:06;4.10;99.90
15556;DHT22;7879;48.660;9.116;2024-01-07T03:22:33;4.10;99.90
15556;DHT22;7879;48.660;9.116;2024-01-07T03:25:00;4.10;99.90
15556;DHT22;7879;48.660;9.116;2024-01-07T03:27:27;4.00;99.90
15556;DHT22;7879;48.660;9.116;2024-01-07T03:29:54;4.00;99.90
15556;DHT22;7879;48.660;9.116;2024-01-07T03:32:21;4.00;99.90
15556;DHT22;7879;48.660;9.116;2024-01-07T03:34:48;4.10;99.90
15556;DHT22;7879;48.660;9.116;2024-01-07T03:37:15;4.10;99.90
15556;DHT22;7879;48.660;9.116;2024-01-07T03:39:41;4.10;99.90
15556;DHT22;7879;48.660;9.116;2024-01-07T03:42:08;4.20;99.90
15556;DHT22;7879;48.660;9.116;2024-01-07T03:44:38;4.20;99.90
15556;DHT22;7879;48.660;9.116;2024-01-07T03:47:07;4.20;99.90
15556;DHT22;7879;48.660;9.116;2024-01-07T03:49:36;4.20;99.90
15556;DHT22;7879;48.660;9.116;2024-01-07T03:52:06;4.10;99.90
15556;DHT22;7879;48.660;9.116;2024-01-07T03:54:33;4.10;99.90
15556;DHT22;7879;48.660;9.116;2024-01-07T03:57:00;4.10;99.90
15556;DHT22;7879;48.660;9.116;2024-01-07T03:59:27;4.10;99.90
15556;DHT22;7879;48.660;9.116;2024-01-07T04:01:56;4.20;99.90
15556;DHT22;7879;48.660;9.116;2024-01-07T04:04:23;4.20;99.90
15556;DHT22;7879;48.660;9.116;2024-01-07T04:06:50;4.10;99.90
15556;DHT22;7879;48.660;9.116;2024-01-07T04:09:17;4.10;99.90
15556;DHT22;7879;48.660;9.116;2024-01-07T04:11:44;4.10;99.90
15556;DHT22;7879;48.660;9.116;2024-01-07T04:14:14;4.00;99.90
15556;DHT22;7879;48.660;9.116;2024-01-07T04:16:41;4.00;99.90
15556;DHT22;7879;48.660;9.116;2024-01-07T04:19:07;4.10;99.90
15556;DHT22;7879;48.660;9.116;2024-01-07T04:21:34;4.00;99.90
15556;DHT22;7879;48.660;9.116;2024-01-07T04:24:02;4.00;99.90
15556;DHT22;7879;48.660;9.116;2024-01-07T04:26:29;3.90;99.90
15556;DHT22;7879;48.660;9.116;2024-01-07T04:28:56;3.90;99.90
15556;DHT22;7879;48.660;9.116;2024-01-07T04:31:23;3.90;99.90
15556;DHT22;7879;48.660;9.116;2024-01-07T04:33:50;3.90;99.90
15556;DHT22;7879;48.660;9.116;2024-01-07T04:36:16;3.90;99.90
15556;DHT22;7879;48.660;9.116;2024-01-07T04:38:43;3.90;99.90
15556;DHT22;7879;48.660;9.116;2024-01-07T04:41:10;3.90;99.90
15556;DHT22;7879;48.660;9.116;2024-01-07T04:43:37;3.90;99.90
15556;DHT22;7879;48.660;9.116;2024-01-07T04:46:04;3.90;99.90
15556;DHT22;7879;48.660;9.116;2024-01-07T04:48:31;3.90;99.90
15556;DHT22;7879;48.660;9.116;2024-01-07T04:50:58;3.90;99.90
15556;DHT22;7879;48.660;9.116;2024-01-07T04:53:24;4.00;99.90
15556;DHT22;7879;48.660;9.116;2024-01-07T04:55:51;3.90;99.90
15556;DHT22;7879;48.660;9.116;2024-01-07T04:58:18;3.80;99.90
15556;DHT22;7879;48.660;9.116;2024-01-07T05:00:45;3.80;99.90
15556;DHT22;7879;48.660;9.116;2024-01-07T05:03:12;3.80;99.90
15556;DHT22;7879;48.660;9.116;2024-01-07T05:05:39;3.80;99.90
15556;DHT22;7879;48.660;9.116;2024-01-07T05:08:06;3.80;99.90
15556;DHT22;7879;48.660;9.116;2024-01-07T05:10:33;3.80;99.90
15556;DHT22;7879;48.660;9.116;2024-01-07T05:12:59;3.80;99.90
15556;DHT22;7879;48.660;9.116;2024-01-07T05:15:31;3.80;99.90
15556;DHT22;7879;48.660;9.116;2024-01-07T05:17:58;3.80;99.90
15556;DHT22;7879;48.660;9.116;2024-01-07T05:20:26;3.80;99.90
15556;DHT22;7879;48.660;9.116;2024-01-07T05:22:53;3.80;99.90
15556;DHT22;7879;48.660;9.116;2024-01-07T05:25:20;3.80;99.90
15556;DHT22;7879;48.660;9.116;2024-01-07T05:27:47;3.80;99.90
15556;DHT22;7879;48.660;9.116;2024-01-07T05:30:14;3.80;99.90
15556;DHT22;7879;48.660;9.116;2024-01-07T05:32:40;3.70;99.90
15556;DHT22;7879;48.660;9.116;2024-01-07T05:35:08;3.70;99.90
15556;DHT22;7879;48.660;9.116;2024-01-07T05:37:35;3.70;99.90
15556;DHT22;7879;48.660;9.116;2024-01-07T05:40:02;3.70;99.90
15556;DHT22;7879;48.660;9.116;2024-01-07T05:42:29;3.70;99.90
15556;DHT22;7879;48.660;9.116;2024-01-07T05:44:56;3.70;99.90
15556;DHT22;7879;48.660;9.116;2024-01-07T05:47:22;3.70;99.90
15556;DHT22;7879;48.660;9.116;2024-01-07T05:49:49;3.70;99.90
15556;DHT22;7879;48.660;9.116;2024-01-07T05:52:19;3.70;99.90
15556;DHT22;7879;48.660;9.116;2024-01-07T05:54:46;3.70;99.90
15556;DHT22;7879;48.660;9.116;2024-01-07T05:57:12;3.60;99.90
15556;DHT22;7879;48.660;9.116;2024-01-07T05:59:39;3.70;99.90
15556;DHT22;7879;48.660;9.116;2024-01-07T06:02:06;3.70;99.90
15556;DHT22;7879;48.660;9.116;2024-01-07T06:04:33;3.70;99.90
15556;DHT22;7879;48.660;9.116;2024-01-07T06:07:00;3.70;99.90
15556;DHT22;7879;48.660;9.116;2024-01-07T06:09:27;3.70;99.90
15556;DHT22;7879;48.660;9.116;2024-01-07T06:11:54;3.70;99.90
15556;DHT22;7879;48.660;9.116;2024-01-07T06:14:22;3.70;99.90
15556;DHT22;7879;48.660;9.116;2024-01-07T06:16:49;3.70;99.90
15556;DHT22;7879;48.660;9.116;2024-01-07T06:19:19;3.60;99.90
15556;DHT22;7879;48.660;9.116;2024-01-07T06:21:46;3.60;99.90
15556;DHT22;7879;48.660;9.116;2024-01-07T06:24:13;3.60;99.90
15556;DHT22;7879;48.660;9.116;2024-01-07T06:26:40;3.60;99.90
15556;DHT22;7879;48.660;9.116;2024-01-07T06:29:07;3.60;99.90
15556;DHT22;7879;48.660;9.116;2024-01-07T06:31:36;3.50;99.90
15556;DHT22;7879;48.660;9.116;2024-01-07T06:34:03;3.60;99.90
15556;DHT22;7879;48.660;9.116;2024-01-07T06:36:30;3.50;99.90
15556;DHT22;7879;48.660;9.116;2024-01-07T06:38:57;3.60;99.90
15556;DHT22;7879;48.660;9.116;2024-01-07T06:41:23;3.50;99.90
15556;DHT22;7879;48.660;9.116;2024-01-07T06:43:50;3.50;99.90
15556;DHT22;7879;48.660;9.116;2024-01-07T06:46:20;3.50;99.90
15556;DHT22;7879;48.660;9.116;2024-01-07T06:48:47;3.50;99.90
15556;DHT22;7879;48.660;9.116;2024-01-07T06:51:17;3.60;99.90
15556;DHT22;7879;48.660;9.116;2024-01-07T06:53:44;3.50;99.90
15556;DHT22;7879;48.660;9.116;2024-01-07T06:56:11;3.50;99.90
15556;DHT22;7879;48.660;9.116;2024-01-07T06:58:39;3.50;99.90
15556;DHT22;7879;48.660;9.116;2024-01-07T07:01:07;3.40;99.90
15556;DHT22;7879;48.660;9.116;2024-01-07T07:03:34;3.50;99.90
15556;DHT22;7879;48.660;9.116;2024-01-07T07:06:01;3.50;99.90
15556;DHT22;7879;48.660;9.116;2024-01-07T07:08:28;3.50;99.90
15556;DHT22;7879;48.660;9.116;2024-01-07T07:10:55;3.50;99.90
15556;DHT22;7879;48.660;9.116;2024-01-07T07:13:22;3.50;99.90
15556;DHT22;7879;48.660;9.116;2024-01-07T07:15:49;3.40;99.90
15556;DHT22;7879;48.660;9.116;2024-01-07T07:18:16;3.40;99.90
15556;DHT22;7879;48.660;9.116;2024-01-07T07:20:42;3.40;99.90
15556;DHT22;7879;48.660;9.116;2024-01-07T07:23:09;3.40;99.90
15556;DHT22;7879;48.660;9.116;2024-01-07T07:25:36;3.40;99.90
15556;DHT22;7879;48.660;9.116;2024-01-07T07:28:03;3.40;99.90
15556;DHT22;7879;48.660;9.116;2024-01-07T07:30:30;3.40;99.90
15556;DHT22;7879;48.660;9.116;2024-01-07T07:32:57;3.40;99.90
15556;DHT22;7879;48.660;9.116;2024-01-07T07:35:24;3.40;99.90
15556;DHT22;7879;48.660;9.116;2024-01-07T07:37:51;3.30;99.90
15556;DHT22;7879;48.660;9.116;2024-01-07T07:40:17;3.30;99.90
15556;DHT22;7879;48.660;9.116;2024-01-07T07:42:45;3.30;99.90
15556;DHT22;7879;48.660;9.116;2024-01-07T07:45:12;3.30;99.90
15556;DHT22;7879;48.660;9.116;2024-01-07T07:47:39;3.30;99.90
15556;DHT22;7879;48.660;9.116;2024-01-07T07:50:11;3.20;99.90
15556;DHT22;7879;48.660;9.116;2024-01-07T07:52:38;3.20;99.90
15556;DHT22;7879;48.660;9.116;2024-01-07T07:55:05;3.30;99.90
15556;DHT22;7879;48.660;9.116;2024-01-07T07:57:33;3.20;99.90
15556;DHT22;7879;48.660;9.116;2024-01-07T08:00:01;3.20;99.90
15556;DHT22;7879;48.660;9.116;2024-01-07T08:02:30;3.20;99.90
15556;DHT22;7879;48.660;9.116;2024-01-07T08:04:57;3.20;99.90
15556;DHT22;7879;48.660;9.116;2024-01-07T08:07:24;3.20;99.90
15556;DHT22;7879;48.660;9.116;2024-01-07T08:09:51;3.10;99.90
15556;DHT22;7879;48.660;9.116;2024-01-07T08:12:20;3.10;99.90
15556;DHT22;7879;48.660;9.116;2024-01-07T08:14:47;3.10;99.90
15556;DHT22;7879;48.660;9.116;2024-01-07T08:17:14;3.00;99.90
15556;DHT22;7879;48.660;9.116;2024-01-07T08:19:40;3.00;99.90
15556;DHT22;7879;48.660;9.116;2024-01-07T08:22:07;3.00;99.90
15556;DHT22;7879;48.660;9.116;2024-01-07T08:24:36;2.90;99.90
15556;DHT22;7879;48.660;9.116;2024-01-07T08:27:04;2.90;99.90
15556;DHT22;7879;48.660;9.116;2024-01-07T08:29:31;2.90;99.90
15556;DHT22;7879;48.660;9.116;2024-01-07T08:31:58;2.90;99.90
15556;DHT22;7879;48.660;9.116;2024-01-07T08:34:25;2.90;99.90
15556;DHT22;7879;48.660;9.116;2024-01-07T08:36:53;2.90;99.90
15556;DHT22;7879;48.660;9.116;2024-01-07T08:39:20;2.90;99.90
15556;DHT22;7879;48.660;9.116;2024-01-07T08:41:47;2.90;99.90
15556;DHT22;7879;48.660;9.116;2024-01-07T08:44:14;2.80;99.90
15556;DHT22;7879;48.660;9.116;2024-01-07T08:46:41;2.80;99.90
15556;DHT22;7879;48.660;9.116;2024-01-07T08:49:08;2.80;99.90
15556;DHT22;7879;48.660;9.116;2024-01-07T08:51:35;2.80;99.90
15556;DHT22;7879;48.660;9.116;2024-01-07T08:54:02;2.80;99.90
15556;DHT22;7879;48.660;9.116;2024-01-07T08:56:29;2.80;99.90
15556;DHT22;7879;48.660;9.116;2024-01-07T08:58:55;2.80;99.90
15556;DHT22;7879;48.660;9.116;2024-01-07T09:01:22;2.70;99.90
15556;DHT22;7879;48.660;9.116;2024-01-07T09:03:51;2.70;99.90
15556;DHT22;7879;48.660;9.116;2024-01-07T09:06:18;2.70;99.90
15556;DHT22;7879;48.660;9.116;2024-01-07T09:08:45;2.70;99.90
15556;DHT22;7879;48.660;9.116;2024-01-07T09:11:11;2.70;99.90
15556;DHT22;7879;48.660;9.116;2024-01-07T09:13:39;2.70;99.90
15556;DHT22;7879;48.660;9.116;2024-01-07T09:16:10;2.70;99.90
15556;DHT22;7879;48.660;9.116;2024-01-07T09:18:39;2.60;99.90
15556;DHT22;7879;48.660;9.116;2024-01-07T09:21:06;2.60;99.90
15556;DHT22;7879;48.660;9.116;2024-01-07T09:23:33;2.60;99.90
15556;DHT22;7879;48.660;9.116;2024-01-07T09:26:03;2.60;99.90
15556;DHT22;7879;48.660;9.116;2024-01-07T09:28:30;2.60;99.90
15556;DHT22;7879;48.660;9.116;2024-01-07T09:30:57;2.60;99.90
15556;DHT22;7879;48.660;9.116;2024-01-07T09:33:23;2.60;99.90
15556;DHT22;7879;48.660;9.116;2024-01-07T09:35:50;2.60;99.90
15556;DHT22;7879;48.660;9.116;2024-01-07T09:38:17;2.60;99.90
15556;DHT22;7879;48.660;9.116;2024-01-07T09:40:44;2.60;99.90
15556;DHT22;7879;48.660;9.116;2024-01-07T09:43:11;2.50;99.90
15556;DHT22;7879;48.660;9.116;2024-01-07T09:45:41;2.60;99.90
15556;DHT22;7879;48.660;9.116;2024-01-07T09:48:08;2.50;99.90
15556;DHT22;7879;48.660;9.116;2024-01-07T09:50:36;2.60;99.90
15556;DHT22;7879;48.660;9.116;2024-01-07T09:53:02;2.60;99.90
15556;DHT22;7879;48.660;9.116;2024-01-07T09:55:37;2.50;99.90
15556;DHT22;7879;48.660;9.116;2024-01-07T09:58:06;2.50;99.90
15556;DHT22;7879;48.660;9.116;2024-01-07T10:00:33;2.50;99.90
15556;DHT22;7879;48.660;9.116;2024-01-07T10:03:01;2.50;99.90
15556;DHT22;7879;48.660;9.116;2024-01-07T10:05:29;2.50;99.90
15556;DHT22;7879;48.660;9.116;2024-01-07T10:07:56;2.40;99.90
15556;DHT22;7879;48.660;9.116;2024-01-07T10:10:24;2.40;99.90
15556;DHT22;7879;48.660;9.116;2024-01-07T10:12:51;2.40;99.90
15556;DHT22;7879;48.660;9.116;2024-01-07T10:15:20;2.40;99.90
15556;DHT22;7879;48.660;9.116;2024-01-07T10:17:47;2.40;99.90
15556;DHT22;7879;48.660;9.116;2024-01-07T10:20:16;2.40;99.90
15556;DHT22;7879;48.660;9.116;2024-01-07T10:22:49;2.40;99.90
15556;DHT22;7879;48.660;9.116;2024-01-07T10:25:16;2.40;99.90
15556;DHT22;7879;48.660;9.116;2024-01-07T10:27:43;2.40;99.90
15556;DHT22;7879;48.660;9.116;2024-01-07T10:30:10;2.40;99.90
15556;DHT22;7879;48.660;9.116;2024-01-07T10:32:37;2.40;99.90
15556;DHT22;7879;48.660;9.116;2024-01-07T10:35:12;2.40;99.90
15556;DHT22;7879;48.660;9.116;2024-01-07T10:37:41;2.40;99.90
15556;DHT22;7879;48.660;9.116;2024-01-07T10:40:11;2.30;99.90
15556;DHT22;7879;48.660;9.116;2024-01-07T10:42:38;2.30;99.90
15556;DHT22;7879;48.660;9.116;2024-01-07T10:45:06;2.20;99.90
15556;DHT22;7879;48.660;9.116;2024-01-07T10:47:34;2.20;99.90
15556;DHT22;7879;48.660;9.116;2024-01-07T10:50:03;2.20;99.90
15556;DHT22;7879;48.660;9.116;2024-01-07T10:52:32;2.20;99.90
15556;DHT22;7879;48.660;9.116;2024-01-07T10:55:09;2.20;99.90
15556;DHT22;7879;48.660;9.116;2024-01-07T10:57:48;2.10;99.90
15556;DHT22;7879;48.660;9.116;2024-01-07T11:00:17;2.10;99.90
15556;DHT22;7879;48.660;9.116;2024-01-07T11:03:17;2.10;99.90
15556;DHT22;7879;48.660;9.116;2024-01-07T11:06:01;2.10;99.90
15556;DHT22;7879;48.660;9.116;2024-01-07T11:11:25;2.10;99.90
15556;DHT22;7879;48.660;9.116;2024-01-07T11:13:54;2.00;99.90
15556;DHT22;7879;48.660;9.116;2024-01-07T11:16:42;2.00;99.90
15556;DHT22;7879;48.660;9.116;2024-01-07T11:19:12;2.00;99.90
15556;DHT22;7879;48.660;9.116;2024-01-07T11:21:39;1.90;99.90
15556;DHT22;7879;48.660;9.116;2024-01-07T11:24:06;2.00;99.90
15556;DHT22;7879;48.660;9.116;2024-01-07T11:26:34;2.00;99.90
15556;DHT22;7879;48.660;9.116;2024-01-07T11:29:01;1.90;99.90
15556;DHT22;7879;48.660;9.116;2024-01-07T11:34:07;1.90;99.90
15556;DHT22;7879;48.660;9.116;2024-01-07T11:36:35;1.90;99.90
15556;DHT22;7879;48.660;9.116;2024-01-07T11:39:04;1.90;99.90
15556;DHT22;7879;48.660;9.116;2024-01-07T11:41:33;1.90;99.90
15556;DHT22;7879;48.660;9.116;2024-01-07T11:44:01;1.90;99.90
15556;DHT22;7879;48.660;9.116;2024-01-07T11:46:32;1.90;99.90
15556;DHT22;7879;48.660;9.116;2024-01-07T11:49:00;1.90;99.90
15556;DHT22;7879;48.660;9.116;2024-01-07T11:51:29;1.90;99.90
15556;DHT22;7879;48.660;9.116;2024-01-07T11:53:58;1.90;99.90
15556;DHT22;7879;48.660;9.116;2024-01-07T11:56:26;1.90;99.90
15556;DHT22;7879;48.660;9.116;2024-01-07T11:58:53;1.90;99.90
15556;DHT22;7879;48.660;9.116;2024-01-07T12:01:20;1.90;99.90
15556;DHT22;7879;48.660;9.116;2024-01-07T12:03:47;1.90;99.90
15556;DHT22;7879;48.660;9.116;2024-01-07T12:06:15;1.90;99.90
15556;DHT22;7879;48.660;9.116;2024-01-07T12:08:48;1.80;99.90
15556;DHT22;7879;48.660;9.116;2024-01-07T12:11:24;1.90;99.90
15556;DHT22;7879;48.660;9.116;2024-01-07T12:13:51;1.90;99.90
15556;DHT22;7879;48.660;9.116;2024-01-07T12:16:18;1.80;99.90
15556;DHT22;7879;48.660;9.116;2024-01-07T12:18:46;1.80;99.90
15556;DHT22;7879;48.660;9.116;2024-01-07T12:21:19;1.80;99.90
15556;DHT22;7879;48.660;9.116;2024-01-07T12:23:50;1.80;99.90
15556;DHT22;7879;48.660;9.116;2024-01-07T12:26:17;1.80;99.90
15556;DHT22;7879;48.660;9.116;2024-01-07T12:28:52;1.80;99.90
15556;DHT22;7879;48.660;9.116;2024-01-07T12:31:21;1.80;99.90
15556;DHT22;7879;48.660;9.116;2024-01-07T12:33:48;1.90;99.90
15556;DHT22;7879;48.660;9.116;2024-01-07T12:36:15;1.80;99.90
15556;DHT22;7879;48.660;9.116;2024-01-07T12:38:43;1.80;99.90
15556;DHT22;7879;48.660;9.116;2024-01-07T12:41:10;1.70;99.90
15556;DHT22;7879;48.660;9.116;2024-01-07T12:43:37;1.70;99.90
15556;DHT22;7879;48.660;9.116;2024-01-07T12:46:04;1.70;99.90
15556;DHT22;7879;48.660;9.116;2024-01-07T12:48:33;1.70;99.90
15556;DHT22;7879;48.660;9.116;2024-01-07T12:51:01;1.60;99.90
15556;DHT22;7879;48.660;9.116;2024-01-07T12:53:28;1.60;99.90
15556;DHT22;7879;48.660;9.116;2024-01-07T12:55:55;1.60;99.90
15556;DHT22;7879;48.660;9.116;2024-01-07T12:58:22;1.60;99.90
15556;DHT22;7879;48.660;9.116;2024-01-07T13:00:49;1.50;99.90
15556;DHT22;7879;48.660;9.116;2024-01-07T13:03:16;1.50;99.90
15556;DHT22;7879;48.660;9.116;2024-01-07T13:05:47;1.50;99.90
15556;DHT22;7879;48.660;9.116;2024-01-07T13:08:17;1.50;99.90
15556;DHT22;7879;48.660;9.116;2024-01-07T13:10:53;1.50;99.90
15556;DHT22;7879;48.660;9.116;2024-01-07T13:13:21;1.50;99.90
15556;DHT22;7879;48.660;9.116;2024-01-07T13:15:48;1.50;99.90
15556;DHT22;7879;48.660;9.116;2024-01-07T13:18:16;1.60;99.90
15556;DHT22;7879;48.660;9.116;2024-01-07T13:20:44;1.60;99.90
15556;DHT22;7879;48.660;9.116;2024-01-07T13:23:10;1.50;99.90
15556;DHT22;7879;48.660;9.116;2024-01-07T13:25:37;1.50;99.90
15556;DHT22;7879;48.660;9.116;2024-01-07T13:28:04;1.60;99.90
15556;DHT22;7879;48.660;9.116;2024-01-07T13:30:31;1.60;99.90
15556;DHT22;7879;48.660;9.116;2024-01-07T13:32:59;1.50;99.90
15556;DHT22;7879;48.660;9.116;2024-01-07T13:35:29;1.50;99.90
15556;DHT22;7879;48.660;9.116;2024-01-07T13:37:56;1.50;99.90
15556;DHT22;7879;48.660;9.116;2024-01-07T13:40:24;1.30;99.90
15556;DHT22;7879;48.660;9.116;2024-01-07T13:42:50;1.30;99.90
15556;DHT22;7879;48.660;9.116;2024-01-07T13:45:19;1.30;99.90
15556;DHT22;7879;48.660;9.116;2024-01-07T13:47:52;1.20;99.90
15556;DHT22;7879;48.660;9.116;2024-01-07T13:50:19;1.20;99.90
15556;DHT22;7879;48.660;9.116;2024-01-07T13:52:46;1.20;99.90
15556;DHT22;7879;48.660;9.116;2024-01-07T13:55:13;1.20;99.90
15556;DHT22;7879;48.660;9.116;2024-01-07T13:57:40;1.20;99.90
15556;DHT22;7879;48.660;9.116;2024-01-07T14:00:09;1.10;99.90
15556;DHT22;7879;48.660;9.116;2024-01-07T14:02:37;1.10;99.90
15556;DHT22;7879;48.660;9.116;2024-01-07T14:05:05;1.10;99.90
15556;DHT22;7879;48.660;9.116;2024-01-07T14:07:38;1.10;99.90
15556;DHT22;7879;48.660;9.116;2024-01-07T14:10:06;1.10;99.90
15556;DHT22;7879;48.660;9.116;2024-01-07T14:12:34;1.00;99.90
15556;DHT22;7879;48.660;9.116;2024-01-07T14:15:01;1.00;99.90
15556;DHT22;7879;48.660;9.116;2024-01-07T14:17:28;1.00;99.90
15556;DHT22;7879;48.660;9.116;2024-01-07T14:19:55;1.00;99.90
15556;DHT22;7879;48.660;9.116;2024-01-07T14:22:22;0.90;99.90
15556;DHT22;7879;48.660;9.116;2024-01-07T14:24:49;0.90;99.90
15556;DHT22;7879;48.660;9.116;2024-01-07T14:27:16;0.90;99.90
15556;DHT22;7879;48.660;9.116;2024-01-07T14:29:44;0.90;99.90
15556;DHT22;7879;48.660;9.116;2024-01-07T14:32:11;0.80;99.90
15556;DHT22;7879;48.660;9.116;2024-01-07T14:34:39;0.80;99.90
15556;DHT22;7879;48.660;9.116;2024-01-07T14:37:09;0.70;99.90
15556;DHT22;7879;48.660;9.116;2024-01-07T14:39:39;0.80;99.90
15556;DHT22;7879;48.660;9.116;2024-01-07T14:42:06;0.70;99.90
15556;DHT22;7879;48.660;9.116;2024-01-07T14:44:33;0.70;99.90
15556;DHT22;7879;48.660;9.116;2024-01-07T14:47:13;0.60;99.90
15556;DHT22;7879;48.660;9.116;2024-01-07T14:49:41;0.60;99.90
15556;DHT22;7879;48.660;9.116;2024-01-07T14:52:09;0.60;99.90
15556;DHT22;7879;48.660;9.116;2024-01-07T14:54:36;0.60;99.90
15556;DHT22;7879;48.660;9.116;2024-01-07T14:57:04;0.50;99.90
15556;DHT22;7879;48.660;9.116;2024-01-07T14:59:33;0.60;99.90
15556;DHT22;7879;48.660;9.116;2024-01-07T15:02:02;0.50;99.90
15556;DHT22;7879;48.660;9.116;2024-01-07T15:04:30;0.50;99.90
15556;DHT22;7879;48.660;9.116;2024-01-07T15:06:57;0.50;99.90
15556;DHT22;7879;48.660;9.116;2024-01-07T15:09:26;0.50;99.90
15556;DHT22;7879;48.660;9.116;2024-01-07T15:11:54;0.40;99.90
15556;DHT22;7879;48.660;9.116;2024-01-07T15:14:21;0.40;99.90
15556;DHT22;7879;48.660;9.116;2024-01-07T15:16:48;0.40;99.90
15556;DHT22;7879;48.660;9.116;2024-01-07T15:19:21;0.40;99.90
15556;DHT22;7879;48.660;9.116;2024-01-07T15:21:49;0.40;99.90
15556;DHT22;7879;48.660;9.116;2024-01-07T15:24:16;0.40;99.90
15556;DHT22;7879;48.660;9.116;2024-01-07T15:26:43;0.40;99.90
15556;DHT22;7879;48.660;9.116;2024-01-07T15:29:10;0.30;99.90
15556;DHT22;7879;48.660;9.116;2024-01-07T15:31:37;0.30;99.90
15556;DHT22;7879;48.660;9.116;2024-01-07T15:34:05;0.30;99.90
15556;DHT22;7879;48.660;9.116;2024-01-07T15:36:34;0.30;99.90
15556;DHT22;7879;48.660;9.116;2024-01-07T15:39:01;0.30;99.90
15556;DHT22;7879;48.660;9.116;2024-01-07T15:41:29;0.30;99.90
15556;DHT22;7879;48.660;9.116;2024-01-07T15:43:56;0.30;99.90
15556;DHT22;7879;48.660;9.116;2024-01-07T15:46:23;0.30;99.90
15556;DHT22;7879;48.660;9.116;2024-01-07T15:48:50;0.20;99.90
15556;DHT22;7879;48.660;9.116;2024-01-07T15:51:17;0.20;99.90
15556;DHT22;7879;48.660;9.116;2024-01-07T15:53:44;0.20;99.90
15556;DHT22;7879;48.660;9.116;2024-01-07T15:56:11;0.30;99.90
15556;DHT22;7879;48.660;9.116;2024-01-07T15:58:38;0.30;99.90
15556;DHT22;7879;48.660;9.116;2024-01-07T16:01:06;0.20;99.90
15556;DHT22;7879;48.660;9.116;2024-01-07T16:03:34;0.10;99.90
15556;DHT22;7879;48.660;9.116;2024-01-07T16:06:01;0.10;99.90
15556;DHT22;7879;48.660;9.116;2024-01-07T16:08:28;0.20;99.90
15556;DHT22;7879;48.660;9.116;2024-01-07T16:10:56;0.10;99.90